createdAt,value
2019-02-11T00:01:16.461Z,3.40
2019-02-11T00:03:59.099Z,3.40
2019-02-11T00:06:27.313Z,3.40
2019-02-11T00:09:02.755Z,3.40
2019-02-11T00:11:37.379Z,3.40
2019-02-11T00:14:13.232Z,3.30
2019-02-11T00:16:47.888Z,3.20
2019-02-11T00:19:23.095Z,3.10
2019-02-11T00:21:58.128Z,3.10
2019-02-11T00:24:34.595Z,3.10
2019-02-11T00:27:09.904Z,3.10
2019-02-11T00:29:44.252Z,3.10
2019-02-11T00:32:19.284Z,3.20
2019-02-11T00:34:54.731Z,3.10
2019-02-11T00:37:31.194Z,3.10
2019-02-11T00:40:06.230Z,3.10
2019-02-11T00:42:41.467Z,3.10
2019-02-11T00:45:17.115Z,3.20
2019-02-11T00:47:53.581Z,3.20
2019-02-11T00:50:28.820Z,3.10
2019-02-11T00:53:03.239Z,3.20
2019-02-11T00:55:38.275Z,3.20
2019-02-11T00:58:13.311Z,3.20
2019-02-11T01:00:49.159Z,3.30
2019-02-11T01:03:24.806Z,3.30
2019-02-11T01:06:00.905Z,3.30
2019-02-11T01:08:34.909Z,3.30
2019-02-11T01:11:08.930Z,3.30
2019-02-11T01:13:44.122Z,3.30
2019-02-11T01:16:19.907Z,3.30
2019-02-11T01:18:54.189Z,3.30
2019-02-11T01:21:29.915Z,3.30
2019-02-11T01:24:04.461Z,3.30
2019-02-11T01:26:39.934Z,3.40
2019-02-11T01:29:15.146Z,3.40
2019-02-11T01:31:50.381Z,3.40
2019-02-11T01:34:25.224Z,3.30
2019-02-11T01:37:00.917Z,3.30
2019-02-11T01:39:35.482Z,3.30
2019-02-11T01:42:08.920Z,3.40
2019-02-11T01:44:42.919Z,3.40
2019-02-11T01:47:16.935Z,3.40
2019-02-11T01:49:52.339Z,3.40
2019-02-11T01:52:29.217Z,3.40
2019-02-11T01:55:04.920Z,3.40
2019-02-11T01:57:41.129Z,3.40
2019-02-11T02:00:16.371Z,3.40
2019-02-11T02:02:52.220Z,3.40
2019-02-11T02:05:29.502Z,3.40
2019-02-11T02:08:11.911Z,3.40
2019-02-11T02:10:50.219Z,3.50
2019-02-11T02:13:27.517Z,3.50
2019-02-11T02:16:03.944Z,3.40
2019-02-11T02:18:42.298Z,3.50
2019-02-11T02:21:19.159Z,3.50
2019-02-11T02:23:55.947Z,3.60
2019-02-11T02:26:30.937Z,3.60
2019-02-11T02:29:05.284Z,3.60
2019-02-11T02:31:42.161Z,3.50
2019-02-11T02:34:17.940Z,3.40
2019-02-11T02:36:52.228Z,3.30
2019-02-11T02:39:27.263Z,3.10
2019-02-11T02:42:01.945Z,3.10
2019-02-11T02:44:36.918Z,3.10
2019-02-11T02:47:09.946Z,3.10
2019-02-11T02:49:44.971Z,3.00
2019-02-11T02:52:19.152Z,3.00
2019-02-11T02:54:53.161Z,2.90
2019-02-11T02:57:27.171Z,2.90
2019-02-11T03:03:29.944Z,2.70
2019-02-11T03:06:03.952Z,2.70
2019-02-11T03:08:37.944Z,2.80
2019-02-11T03:21:05.206Z,2.60
2019-02-11T03:23:40.443Z,2.70
2019-02-11T03:29:55.227Z,2.90
2019-02-11T03:32:30.262Z,2.90
2019-02-11T03:35:04.947Z,2.90
2019-02-11T03:41:09.427Z,3.00
2019-02-11T03:47:00.464Z,3.20
2019-02-11T03:49:35.285Z,3.20
2019-02-11T03:52:11.548Z,3.20
2019-02-11T03:54:46.170Z,3.20
2019-02-11T03:57:21.817Z,3.20
2019-02-11T04:03:37.948Z,3.30
2019-02-11T04:06:11.950Z,3.40
2019-02-11T04:12:13.955Z,3.30
2019-02-11T04:14:47.962Z,3.30
2019-02-11T04:17:22.560Z,3.30
2019-02-11T04:19:57.181Z,3.30
2019-02-11T04:22:32.424Z,3.20
2019-02-11T04:25:07.454Z,3.20
2019-02-11T04:27:42.489Z,3.20
2019-02-11T04:30:17.934Z,3.10
2019-02-11T04:32:53.171Z,3.10
2019-02-11T04:35:28.817Z,3.10
2019-02-11T04:38:03.441Z,3.10
2019-02-11T04:40:38.885Z,2.90
2019-02-11T04:43:13.715Z,2.90
2019-02-11T04:45:48.339Z,2.80
2019-02-11T04:48:23.166Z,2.80
2019-02-11T04:50:58.199Z,2.80
2019-02-11T04:53:32.960Z,2.80
2019-02-11T04:56:06.831Z,2.80
2019-02-11T04:58:40.962Z,2.90
2019-02-11T05:01:14.867Z,2.90
2019-02-11T05:03:49.271Z,2.90
2019-02-11T05:06:24.307Z,2.90
2019-02-11T05:08:59.985Z,3.00
2019-02-11T05:11:34.374Z,3.00
2019-02-11T05:14:09.961Z,3.00
2019-02-11T05:16:44.853Z,3.00
2019-02-11T05:19:20.505Z,3.00
2019-02-11T05:22:01.264Z,2.90
2019-02-11T05:24:37.527Z,2.80
2019-02-11T05:27:13.585Z,2.80
2019-02-11T05:29:50.463Z,2.60
2019-02-11T05:32:26.521Z,2.60
2019-02-11T05:35:04.418Z,2.50
2019-02-11T05:37:39.452Z,2.50
2019-02-11T05:40:14.281Z,2.50
2019-02-11T05:42:49.963Z,2.50
2019-02-11T05:45:26.190Z,2.40
2019-02-11T05:48:05.531Z,2.40
2019-02-11T05:50:40.353Z,2.40
2019-02-11T05:56:42.240Z,2.50
2019-02-11T05:59:20.344Z,2.50
2019-02-11T06:01:55.170Z,2.50
2019-02-11T06:04:31.432Z,2.50
2019-02-11T06:07:06.271Z,2.50
2019-02-11T06:09:41.303Z,2.60
2019-02-11T06:12:16.971Z,2.60
2019-02-11T06:15:03.710Z,2.50
2019-02-11T06:17:34.586Z,2.50
2019-02-11T06:23:37.980Z,2.50
2019-02-11T06:26:11.983Z,2.50
2019-02-11T06:28:46.983Z,2.50
2019-02-11T06:31:22.390Z,2.40
2019-02-11T06:37:38.196Z,2.40
2019-02-11T06:40:13.437Z,2.50
2019-02-11T06:42:53.597Z,2.50
2019-02-11T06:45:28.620Z,2.40
2019-02-11T06:48:04.474Z,2.40
2019-02-11T06:50:39.302Z,2.50
2019-02-11T06:53:18.635Z,2.50
2019-02-11T06:59:41.244Z,2.40
2019-02-11T07:02:15.213Z,2.50
2019-02-11T07:08:20.369Z,2.50
2019-02-11T07:11:01.345Z,2.50
2019-02-11T07:17:08.364Z,2.50
2019-02-11T07:19:42.069Z,2.50
2019-02-11T07:22:17.419Z,2.50
2019-02-11T07:28:22.750Z,2.50
2019-02-11T07:30:57.990Z,2.40
2019-02-11T07:33:33.432Z,2.40
2019-02-11T07:36:08.875Z,2.40
2019-02-11T07:38:46.501Z,2.30
2019-02-11T07:41:26.458Z,2.30
2019-02-11T07:44:15.511Z,2.20
2019-02-11T07:49:58.930Z,2.20
2019-02-11T07:52:36.015Z,2.20
2019-02-11T07:55:11.525Z,2.30
2019-02-11T08:01:15.524Z,2.20
2019-02-11T08:03:50.827Z,2.00
2019-02-11T08:06:26.065Z,1.90
2019-02-11T08:09:01.538Z,1.80
2019-02-11T08:11:39.000Z,1.80
2019-02-11T08:17:41.537Z,1.80
2019-02-11T08:20:16.558Z,2.00
2019-02-11T08:22:56.538Z,2.00
2019-02-11T08:25:31.542Z,1.90
2019-02-11T08:28:19.654Z,2.00
2019-02-11T08:30:51.826Z,2.10
2019-02-11T08:33:27.887Z,2.20
2019-02-11T08:36:04.983Z,2.20
2019-02-11T08:38:41.017Z,2.20
2019-02-11T08:41:36.130Z,2.20
2019-02-11T08:44:19.972Z,2.30
2019-02-11T08:46:56.220Z,2.40
2019-02-11T08:49:33.934Z,2.50
2019-02-11T08:55:39.546Z,2.50
2019-02-11T08:58:14.939Z,2.60
2019-02-11T09:00:58.771Z,2.60
2019-02-11T09:03:40.770Z,2.50
2019-02-11T09:06:17.985Z,2.50
2019-02-11T09:08:53.903Z,2.60
2019-02-11T09:11:30.167Z,2.60
2019-02-11T09:24:13.045Z,2.60
2019-02-11T09:26:48.560Z,2.70
2019-02-11T09:29:27.414Z,2.80
2019-02-11T09:32:03.575Z,2.80
2019-02-11T09:34:37.892Z,2.90
2019-02-11T09:37:13.127Z,2.90
2019-02-11T09:39:47.576Z,3.10
2019-02-11T09:42:23.194Z,3.20
2019-02-11T09:44:57.415Z,3.30
2019-02-11T09:47:32.036Z,3.40
2019-02-11T09:50:31.561Z,3.60
2019-02-11T09:53:07.085Z,3.50
2019-02-11T09:55:42.939Z,3.50
2019-02-11T09:58:17.972Z,3.40
2019-02-11T10:00:54.567Z,3.40
2019-02-11T10:03:29.563Z,3.40
2019-02-11T10:06:04.097Z,3.30
2019-02-11T10:12:30.965Z,3.40
2019-02-11T10:15:05.796Z,3.30
2019-02-11T10:21:25.591Z,3.60
2019-02-11T10:24:00.606Z,3.80
2019-02-11T10:26:37.431Z,3.90
2019-02-11T10:32:52.186Z,4.00
2019-02-11T10:39:08.199Z,4.50
2019-02-11T10:41:43.029Z,4.50
2019-02-11T10:44:20.108Z,4.50
2019-02-11T10:46:55.143Z,4.60
2019-02-11T10:49:30.176Z,4.70
2019-02-11T10:52:04.186Z,4.80
2019-02-11T10:54:40.041Z,5.00
2019-02-11T11:01:06.188Z,5.00
2019-02-11T11:03:42.962Z,5.20
2019-02-11T11:06:18.200Z,5.20
2019-02-11T11:08:53.702Z,5.30
2019-02-11T11:11:34.706Z,5.10
2019-02-11T11:14:11.900Z,5.30
2019-02-11T11:16:54.924Z,5.40
2019-02-11T11:19:30.571Z,5.40
2019-02-11T11:22:10.315Z,5.60
2019-02-11T11:25:15.557Z,5.80
2019-02-11T11:28:13.221Z,5.90
2019-02-11T11:30:46.616Z,5.60
2019-02-11T11:33:20.840Z,5.50
2019-02-11T11:35:57.709Z,5.40
2019-02-11T11:38:32.946Z,5.50
2019-02-11T11:41:09.657Z,5.40
2019-02-11T11:43:48.480Z,5.50
2019-02-11T11:46:23.577Z,5.70
2019-02-11T11:49:18.136Z,5.60
2019-02-11T11:51:55.866Z,5.80
2019-02-11T11:54:32.236Z,5.80
2019-02-11T11:57:08.927Z,5.80
2019-02-11T11:59:43.733Z,5.60
2019-02-11T12:02:18.698Z,5.60
2019-02-11T12:04:54.209Z,5.60
2019-02-11T12:07:29.452Z,5.60
2019-02-11T12:10:04.072Z,5.80
2019-02-11T12:12:38.521Z,5.90
2019-02-11T12:15:14.139Z,5.80
2019-02-11T12:17:52.253Z,5.60
2019-02-11T12:20:32.740Z,5.40
2019-02-11T12:23:04.158Z,5.10
2019-02-11T12:25:39.189Z,5.00
2019-02-11T12:28:14.837Z,5.10
2019-02-11T12:30:53.762Z,5.00
2019-02-11T12:37:09.729Z,4.90
2019-02-11T12:39:46.675Z,4.80
2019-02-11T12:42:22.508Z,4.60
2019-02-11T12:44:57.744Z,4.50
2019-02-11T12:47:33.591Z,4.30
2019-02-11T12:50:09.653Z,4.30
2019-02-11T12:52:45.120Z,4.30
2019-02-11T12:55:20.361Z,4.30
2019-02-11T12:57:56.602Z,4.50
2019-02-11T13:00:30.619Z,4.60
2019-02-11T13:03:06.667Z,4.60
2019-02-11T13:05:45.668Z,4.60
2019-02-11T13:08:18.569Z,4.60
2019-02-11T13:10:56.069Z,4.40
2019-02-11T13:13:30.482Z,4.50
2019-02-11T13:16:06.212Z,4.60
2019-02-11T13:18:40.371Z,4.70
2019-02-11T13:21:14.767Z,4.60
2019-02-11T13:23:50.423Z,4.60
2019-02-11T13:26:26.677Z,4.60
2019-02-11T13:29:01.757Z,4.60
2019-02-11T13:31:38.790Z,4.60
2019-02-11T13:34:15.211Z,4.70
2019-02-11T13:36:55.419Z,4.80
2019-02-11T13:39:30.652Z,5.00
2019-02-11T13:42:08.578Z,5.00
2019-02-11T13:44:42.769Z,5.10
2019-02-11T13:47:21.487Z,5.10
2019-02-11T13:49:56.772Z,5.10
2019-02-11T13:52:32.208Z,5.00
2019-02-11T13:55:10.683Z,5.10
2019-02-11T13:57:47.149Z,5.00
2019-02-11T14:00:37.229Z,5.00
2019-02-11T14:03:12.189Z,5.00
2019-02-11T14:05:47.615Z,5.00
2019-02-11T14:08:21.417Z,5.00
2019-02-11T14:11:01.210Z,5.00
2019-02-11T14:13:41.519Z,5.00
2019-02-11T14:16:17.193Z,4.90
2019-02-11T14:18:51.792Z,5.00
2019-02-11T14:21:28.663Z,4.90
2019-02-11T14:24:03.697Z,4.90
2019-02-11T14:26:38.739Z,5.00
2019-02-11T14:29:13.681Z,4.90
2019-02-11T14:31:48.625Z,4.90
2019-02-11T14:34:22.601Z,4.90
2019-02-11T14:37:00.564Z,4.90
2019-02-11T14:39:36.597Z,4.90
2019-02-11T14:42:15.472Z,5.00
2019-02-11T14:48:27.415Z,4.90
2019-02-11T14:54:24.197Z,4.80
2019-02-11T14:57:00.423Z,4.80
2019-02-11T14:59:38.530Z,4.80
2019-02-11T15:02:13.196Z,4.80
2019-02-11T15:08:17.696Z,4.70
2019-02-11T15:10:53.754Z,4.60
2019-02-11T15:13:29.608Z,4.60
2019-02-11T15:16:12.427Z,4.60
2019-02-11T15:18:49.507Z,4.60
2019-02-11T15:21:24.203Z,4.60
2019-02-11T15:24:00.603Z,4.50
2019-02-11T15:26:37.202Z,4.50
2019-02-11T15:29:11.492Z,4.50
2019-02-11T15:31:55.541Z,4.60
2019-02-11T15:34:33.638Z,4.60
2019-02-11T15:37:13.579Z,4.60
2019-02-11T15:39:53.146Z,4.70
2019-02-11T15:42:30.426Z,4.60
2019-02-11T15:45:07.206Z,4.60
2019-02-11T15:47:46.410Z,4.60
2019-02-11T15:50:24.726Z,4.60
2019-02-11T15:53:05.501Z,4.60
2019-02-11T15:55:41.754Z,4.40
2019-02-11T15:58:18.447Z,4.30
2019-02-11T16:00:54.210Z,4.30
2019-02-11T16:03:30.744Z,4.20
2019-02-11T16:06:10.687Z,4.30
2019-02-11T16:08:43.681Z,4.20
2019-02-11T16:11:19.530Z,4.00
2019-02-11T16:14:01.733Z,4.00
2019-02-11T16:16:37.593Z,4.00
2019-02-11T16:19:14.209Z,3.90
2019-02-11T16:21:49.699Z,4.00
2019-02-11T16:24:25.207Z,4.00
2019-02-11T16:26:59.771Z,4.00
2019-02-11T16:29:35.619Z,3.90
2019-02-11T16:32:11.676Z,3.80
2019-02-11T16:34:47.529Z,3.80
2019-02-11T16:37:24.617Z,3.80
2019-02-11T16:40:00.872Z,3.70
2019-02-11T16:42:39.214Z,3.70
2019-02-11T16:45:16.477Z,3.70
2019-02-11T16:47:51.711Z,3.70
2019-02-11T16:50:27.214Z,3.70
2019-02-11T16:53:02.594Z,3.80
2019-02-11T16:55:39.062Z,3.80
2019-02-11T16:58:14.503Z,3.80
2019-02-11T17:00:50.315Z,3.80
2019-02-11T17:03:25.602Z,3.80
2019-02-11T17:06:02.473Z,3.80
2019-02-11T17:08:39.763Z,3.70
2019-02-11T17:11:18.686Z,3.60
2019-02-11T17:13:54.216Z,3.50
2019-02-11T17:16:29.230Z,3.50
2019-02-11T17:19:09.523Z,3.40
2019-02-11T17:21:42.507Z,3.30
2019-02-11T17:24:17.767Z,3.30
2019-02-11T17:27:09.226Z,3.30
2019-02-11T17:29:44.807Z,3.30
2019-02-11T17:32:26.335Z,3.30
2019-02-11T17:35:00.610Z,3.30
2019-02-11T17:37:34.826Z,3.30
2019-02-11T17:40:11.798Z,3.30
2019-02-11T17:42:47.229Z,3.10
2019-02-11T17:45:30.779Z,3.10
2019-02-11T17:48:06.257Z,3.20
2019-02-11T17:50:40.437Z,3.10
2019-02-11T17:53:29.299Z,3.00
2019-02-11T17:56:02.793Z,3.00
2019-02-11T17:58:38.450Z,3.00
2019-02-11T18:01:14.496Z,3.00
2019-02-11T18:03:50.554Z,3.10
2019-02-11T18:06:25.588Z,3.00
2019-02-11T18:09:00.623Z,2.90
2019-02-11T18:11:35.450Z,2.90
2019-02-11T18:14:13.761Z,2.90
2019-02-11T18:16:50.258Z,2.80
2019-02-11T18:19:26.264Z,2.80
2019-02-11T18:22:02.137Z,2.80
2019-02-11T18:24:37.242Z,2.80
2019-02-11T18:27:11.242Z,2.80
2019-02-11T18:29:47.034Z,2.80
2019-02-11T18:32:24.736Z,2.90
2019-02-11T18:35:01.250Z,2.90
2019-02-11T18:37:36.641Z,2.90
2019-02-11T18:40:15.574Z,2.80
2019-02-11T18:42:53.671Z,2.80
2019-02-11T18:45:31.104Z,2.80
2019-02-11T18:48:05.252Z,2.70
2019-02-11T18:50:39.258Z,2.70
2019-02-11T18:53:14.257Z,2.70
2019-02-11T18:55:49.893Z,2.70
2019-02-11T18:58:25.359Z,2.60
2019-02-11T19:00:59.314Z,2.60
2019-02-11T19:03:34.378Z,2.60
2019-02-11T19:06:09.594Z,2.70
2019-02-11T19:08:45.644Z,2.80
2019-02-11T19:15:00.848Z,2.90
2019-02-11T19:17:37.566Z,2.90
2019-02-11T19:20:13.772Z,2.90
2019-02-11T19:22:47.782Z,2.80
2019-02-11T19:25:24.048Z,2.80
2019-02-11T19:27:59.604Z,2.80
2019-02-11T19:30:34.316Z,2.80
2019-02-11T19:33:08.259Z,2.90
2019-02-11T19:35:44.075Z,2.80
2019-02-11T19:38:21.408Z,2.90
2019-02-11T19:40:57.424Z,2.90
2019-02-11T19:43:32.905Z,3.00
2019-02-11T19:46:08.016Z,3.00
2019-02-11T19:48:42.723Z,3.10
2019-02-11T19:51:26.359Z,3.10
2019-02-11T19:54:01.290Z,3.10
2019-02-11T19:56:37.963Z,3.20
2019-02-11T19:59:12.999Z,3.20
2019-02-11T20:01:55.100Z,3.20
2019-02-11T20:04:32.499Z,3.20
2019-02-11T20:07:12.842Z,3.30
2019-02-11T20:09:50.415Z,3.20
2019-02-11T20:12:32.332Z,3.20
2019-02-11T20:15:13.518Z,3.20
2019-02-11T20:17:53.663Z,3.20
2019-02-11T20:20:32.077Z,3.20
2019-02-11T20:23:10.077Z,3.20
2019-02-11T20:25:45.607Z,3.30
2019-02-11T20:28:21.269Z,3.30
2019-02-11T20:30:57.639Z,3.30
2019-02-11T20:33:36.953Z,3.40
2019-02-11T20:36:13.541Z,3.40
2019-02-11T20:38:49.085Z,3.40
2019-02-11T20:41:24.937Z,3.30
2019-02-11T20:44:00.618Z,3.20
2019-02-11T20:46:41.354Z,3.20
2019-02-11T20:52:45.079Z,3.20
2019-02-11T21:02:16.676Z,3.40
2019-02-11T21:08:32.072Z,3.30
2019-02-11T21:14:47.938Z,3.50
2019-02-11T21:17:30.287Z,3.40
2019-02-11T21:20:17.644Z,3.40
2019-02-11T21:22:49.160Z,3.40
2019-02-11T21:25:24.941Z,3.50
2019-02-11T21:28:01.481Z,3.40
2019-02-11T21:30:37.023Z,3.30
2019-02-11T21:33:15.253Z,3.20
2019-02-11T21:35:51.546Z,3.30
2019-02-11T21:38:28.579Z,3.10
2019-02-11T21:41:04.054Z,3.00
2019-02-11T21:43:42.034Z,3.00
2019-02-11T21:46:18.596Z,3.00
2019-02-11T21:48:58.953Z,2.90
2019-02-11T21:51:37.481Z,2.80
2019-02-11T21:54:14.046Z,2.90
2019-02-11T21:56:51.058Z,2.90
2019-02-11T21:59:25.640Z,2.80
2019-02-11T22:02:04.577Z,2.80
2019-02-11T22:04:39.597Z,2.70
2019-02-11T22:07:16.269Z,2.60
2019-02-11T22:10:07.102Z,2.50
2019-02-11T22:12:43.336Z,2.70
2019-02-11T22:15:22.151Z,2.80
2019-02-11T22:17:57.705Z,2.80
2019-02-11T22:20:34.747Z,2.90
2019-02-11T22:23:11.661Z,2.80
2019-02-11T22:25:48.547Z,2.80
2019-02-11T22:28:24.602Z,2.60
2019-02-11T22:31:00.451Z,2.50
2019-02-11T22:33:37.738Z,2.50
2019-02-11T22:36:15.191Z,2.50
2019-02-11T22:38:55.595Z,2.70
2019-02-11T22:41:36.765Z,2.70
2019-02-11T22:44:15.210Z,2.80
2019-02-11T22:46:51.550Z,2.70
2019-02-11T22:49:30.463Z,2.60
2019-02-11T22:52:06.522Z,2.50
2019-02-11T22:54:41.553Z,2.50
2019-02-11T22:57:16.214Z,2.50
2019-02-11T22:59:51.417Z,2.30
2019-02-11T23:05:35.891Z,2.40
2019-02-11T23:08:09.694Z,2.40
2019-02-11T23:10:45.752Z,2.40
2019-02-11T23:13:24.677Z,2.40
2019-02-11T23:15:58.686Z,2.40
2019-02-11T23:18:34.542Z,2.50
2019-02-11T23:21:11.623Z,2.50
2019-02-11T23:23:49.216Z,2.50
2019-02-11T23:26:43.589Z,2.50
2019-02-11T23:29:18.430Z,2.40
2019-02-11T23:31:54.897Z,2.40
2019-02-11T23:34:30.213Z,2.40
2019-02-11T23:37:04.556Z,2.40
2019-02-11T23:39:39.248Z,2.30
2019-02-11T23:42:14.243Z,2.20
2019-02-11T23:44:51.227Z,2.30
2019-02-11T23:47:28.784Z,2.40
2019-02-11T23:50:03.617Z,2.50
2019-02-11T23:52:38.442Z,2.60
2019-02-11T23:55:14.704Z,2.50
2019-02-11T23:57:50.227Z,2.50
